Weather History for New Ulm, MN

Change the Weather History Date:

Saturday, September 14, 2013

  Actual Average Record
Temperature  
Mean Temperature 58 °F -  
Max Temperature 71 °F 71 °F 136 °F (1997)
Min Temperature 46 °F 49 °F 3 °F (1999)
Degree Days  
Heating Degree Days 6    
Growing Degree Days 8 (Base 50)    
Moisture  
Dew Point 49 °F    
Average Humidity 76    
Maximum Humidity 100    
Minimum Humidity 41    
Precipitation  
Precipitation 0.34 in - - ()
Sea Level Pressure  
Sea Level Pressure 29.97 in    
Wind  
Wind Speed 9 mph (SSE)    
Max Wind Speed 18 mph    
Max Gust Speed 23 mph    
Visibility 10 miles    
Events Rain    
Averages and records for this station are not official NWS values.
T = Trace of Precipitation, MM = Missing Value Source: NWS Daily Summary

Daily Weather History Graph

Daily Weather History Graph

Search for Another Location

Airport:

Trip Planner

Search our weather history database for the weather conditions in past years. The results will help you decide how hot, cold, wet, or windy it might be!

Date:

Astronomy

Sep. 14, 2013 Rise Set
Actual Time 6:56 AM CDT 7:29 PM CDT
Civil Twilight 6:26 AM CDT 7:59 PM CDT
Nautical Twilight 5:52 AM CDT 8:33 PM CDT
Astronomical Twilight 5:16 AM CDT 9:09 PM CDT
Moon 4:20 PM CDT (9/14) 1:19 AM CDT (9/14)
Length of Visible Light 13h 32m
Length of Day
12h 33m
Waxing Gibbous, 72% of the Moon is Illuminated
Sep 14
Waxing Gibbous
Sep 19
Full
Sep 26
Last Quarter
Oct 4
New
Oct 11
First Quarter

Hourly Weather History & Observations

Time (CDT) Temp. Windchill Dew Point Humidity Pressure Visibility Wind Dir Wind Speed Gust Speed Precip Events Conditions
12:13 AM 51.8 °F - 44.6 °F 76% 30.09 in 10.0 mi SSE 8.1 mph - N/A   Clear
12:33 AM 51.8 °F - 44.6 °F 76% 30.08 in 10.0 mi SSE 8.1 mph - N/A   Clear
12:53 AM 50.0 °F - 44.6 °F 82% 30.08 in 10.0 mi SSE 5.8 mph - N/A   Clear
1:13 AM 48.2 °F - 44.6 °F 87% 30.08 in 10.0 mi South 6.9 mph - N/A   Clear
1:32 AM 48.2 °F - 44.6 °F 87% 30.08 in 10.0 mi South 8.1 mph - N/A   Clear
1:53 AM 48.2 °F - 44.6 °F 87% 30.09 in 10.0 mi South 6.9 mph - N/A   Clear
2:12 AM 50.0 °F - 44.6 °F 82% 30.08 in 10.0 mi South 8.1 mph - N/A   Clear
2:33 AM 48.2 °F - 44.6 °F 87% 30.08 in 10.0 mi South 8.1 mph - N/A   Clear
2:53 AM 48.2 °F - 44.6 °F 87% 30.08 in 10.0 mi SSE 6.9 mph - N/A   Clear
3:12 AM 46.4 °F 42.4 °F 44.6 °F 93% 30.07 in 10.0 mi South 8.1 mph - N/A   Clear
3:33 AM 46.4 °F 42.9 °F 44.6 °F 93% 30.07 in 10.0 mi South 6.9 mph - N/A   Clear
3:53 AM 46.4 °F 42.9 °F 44.6 °F 93% 30.07 in 10.0 mi South 6.9 mph - N/A   Clear
4:12 AM 46.4 °F 42.4 °F 44.6 °F 93% 30.06 in 10.0 mi South 8.1 mph - N/A   Clear
4:33 AM 46.4 °F 42.4 °F 44.6 °F 93% 30.06 in 10.0 mi South 8.1 mph - N/A   Clear
4:53 AM 46.4 °F 41.9 °F 44.6 °F 93% 30.06 in 10.0 mi South 9.2 mph - N/A   Clear
5:12 AM 46.4 °F 41.9 °F 44.6 °F 93% 30.06 in 10.0 mi South 9.2 mph - N/A   Clear
5:33 AM 48.2 °F - 44.6 °F 87% 30.06 in 10.0 mi South 9.2 mph - N/A   Clear
5:53 AM 48.2 °F - 44.6 °F 87% 30.06 in 10.0 mi South 9.2 mph - N/A   Clear
6:13 AM 48.2 °F - 44.6 °F 87% 30.06 in 10.0 mi South 9.2 mph - N/A   Clear
6:33 AM 46.4 °F 42.4 °F 44.6 °F 93% 30.05 in 10.0 mi South 8.1 mph - N/A   Clear
6:53 AM 46.4 °F 41.9 °F 44.6 °F 93% 30.05 in 10.0 mi South 9.2 mph - N/A   Clear
7:13 AM 48.2 °F - 44.6 °F 87% 30.05 in 10.0 mi South 9.2 mph - N/A   Clear
7:33 AM 48.2 °F - 44.6 °F 87% 30.05 in 10.0 mi South 9.2 mph - N/A   Clear
7:53 AM 48.2 °F - 44.6 °F 87% 30.05 in 10.0 mi South 9.2 mph - N/A   Clear
8:13 AM 51.8 °F - 44.6 °F 76% 30.04 in 10.0 mi South 11.5 mph - N/A   Clear
8:33 AM 51.8 °F - 44.6 °F 76% 30.04 in 10.0 mi South 10.4 mph - N/A   Clear
8:52 AM 55.4 °F - 46.4 °F 72% 30.03 in 10.0 mi South 10.4 mph - N/A   Clear
9:13 AM 59.0 °F - 46.4 °F 63% 30.03 in 10.0 mi South 9.2 mph - N/A   Clear
9:33 AM 60.8 °F - 46.4 °F 59% 30.02 in 10.0 mi South 11.5 mph - N/A   Clear
9:52 AM 62.6 °F - 46.4 °F 55% 30.02 in 10.0 mi South 11.5 mph - N/A   Clear
10:13 AM 62.6 °F - 46.4 °F 55% 30.02 in 10.0 mi SSW 11.5 mph 16.1 mph N/A   Clear
10:33 AM 66.2 °F - 46.4 °F 49% 30.01 in 10.0 mi SSW 11.5 mph 16.1 mph N/A   Clear
10:52 AM 66.2 °F - 46.4 °F 49% 30.01 in 10.0 mi SSW 11.5 mph 18.4 mph N/A   Clear
11:13 AM 69.8 °F - 46.4 °F 43% 30.00 in 10.0 mi SSW 16.1 mph - N/A   Clear
11:33 AM 69.8 °F - 46.4 °F 43% 29.99 in 10.0 mi SSW 15.0 mph 19.6 mph N/A   Clear
11:52 AM 71.6 °F - 46.4 °F 41% 29.98 in 10.0 mi South 15.0 mph 20.7 mph N/A   Clear
12:13 PM 71.6 °F - 46.4 °F 41% 29.98 in 10.0 mi SSW 16.1 mph 19.6 mph N/A   Clear
12:32 PM 71.6 °F - 46.4 °F 41% 29.97 in 10.0 mi SSW 16.1 mph 21.9 mph N/A   Clear
12:53 PM 69.8 °F - 46.4 °F 43% 29.96 in 10.0 mi South 18.4 mph 23.0 mph N/A   Clear
1:13 PM 71.6 °F - 46.4 °F 41% 29.96 in 10.0 mi SSW 11.5 mph - N/A   Clear
1:32 PM 71.6 °F - 46.4 °F 41% 29.95 in 10.0 mi SSW 15.0 mph 19.6 mph N/A   Clear
1:53 PM 69.8 °F - 46.4 °F 43% 29.95 in 10.0 mi South 16.1 mph 21.9 mph N/A   Scattered Clouds
2:13 PM 71.6 °F - 48.2 °F 43% 29.95 in 10.0 mi SSW 12.7 mph 19.6 mph N/A   Scattered Clouds
2:32 PM 71.6 °F - 48.2 °F 43% 29.94 in 10.0 mi South 12.7 mph - N/A   Clear
2:53 PM 71.6 °F - 48.2 °F 43% 29.93 in 10.0 mi SW 13.8 mph 17.3 mph N/A   Clear
3:13 PM 69.8 °F - 50.0 °F 49% 29.93 in 10.0 mi SSW 8.1 mph - N/A Rain Light Rain
3:32 PM 69.8 °F - 50.0 °F 49% 29.92 in 10.0 mi South 8.1 mph - N/A Rain Light Rain
3:53 PM 69.8 °F - 51.8 °F 53% 29.91 in 10.0 mi South 10.4 mph - N/A   Mostly Cloudy
4:13 PM 69.8 °F - 50.0 °F 49% 29.90 in 10.0 mi SSW 9.2 mph 19.6 mph N/A Rain Light Rain
4:32 PM 66.2 °F - 53.6 °F 64% 29.90 in 10.0 mi South 8.1 mph - N/A Rain Light Rain
4:53 PM 62.6 °F - 55.4 °F 77% 29.90 in 10.0 mi South 11.5 mph - 0.01 in Rain Rain
5:13 PM 60.8 °F - 57.2 °F 88% 29.90 in 10.0 mi South 4.6 mph - 0.01 in Rain Rain
5:32 PM 60.8 °F - 57.2 °F 88% 29.88 in 10.0 mi SE 6.9 mph - 0.01 in Rain Light Rain
5:53 PM 60.8 °F - 55.4 °F 82% 29.86 in 10.0 mi ESE 6.9 mph - 0.01 in   Mostly Cloudy
6:13 PM 60.8 °F - 55.4 °F 82% 29.85 in 10.0 mi SE 9.2 mph - N/A   Overcast
6:32 PM 60.8 °F - 55.4 °F 82% 29.83 in 10.0 mi SE 10.4 mph - N/A   Overcast
6:53 PM 60.8 °F - 55.4 °F 82% 29.83 in 10.0 mi SE 9.2 mph - N/A Rain Light Rain
7:12 PM 60.8 °F - 55.4 °F 82% 29.85 in 10.0 mi Calm Calm - 0.01 in Rain Light Rain
7:33 PM 60.8 °F - 57.2 °F 88% 29.86 in 7.0 mi NNE 5.8 mph - 0.09 in Rain Rain
7:53 PM 57.2 °F - 57.2 °F 100% 29.88 in 10.0 mi North 6.9 mph - 0.27 in Rain Heavy Rain
8:12 PM 57.2 °F - 57.2 °F 100% 29.89 in 10.0 mi ENE 3.5 mph - 0.02 in Rain Light Rain
8:33 PM 57.2 °F - 57.2 °F 100% 29.88 in 10.0 mi East 5.8 mph - 0.03 in Rain Light Rain
8:53 PM 57.2 °F - 57.2 °F 100% 29.88 in 10.0 mi East 8.1 mph - 0.05 in Rain Light Rain
9:12 PM 57.2 °F - 57.2 °F 100% 29.87 in 10.0 mi East 10.4 mph - N/A   Overcast
9:33 PM 57.2 °F - 57.2 °F 100% 29.87 in 10.0 mi ESE 8.1 mph - N/A   Overcast
9:53 PM 57.2 °F - 57.2 °F 100% 29.87 in 10.0 mi ESE 10.4 mph - N/A   Overcast
10:12 PM 57.2 °F - 57.2 °F 100% 29.86 in 10.0 mi ESE 10.4 mph - N/A   Overcast
10:33 PM 57.2 °F - 57.2 °F 100% 29.86 in 10.0 mi ESE 9.2 mph - N/A   Overcast
10:52 PM 57.2 °F - 57.2 °F 100% 29.86 in 10.0 mi ESE 8.1 mph - N/A   Overcast
11:13 PM 57.2 °F - 57.2 °F 100% 29.86 in 10.0 mi ESE 9.2 mph - N/A   Overcast
11:33 PM 57.2 °F - 57.2 °F 100% 29.86 in 10.0 mi ESE 9.2 mph - N/A   Overcast
11:53 PM 57.2 °F - 57.2 °F 100% 29.85 in 10.0 mi ESE 8.1 mph - N/A   Overcast